createdAt,value
2023-08-29T00:02:24.235Z,23.73
2023-08-29T00:04:51.096Z,23.82
2023-08-29T00:07:22.957Z,23.65
2023-08-29T00:09:49.736Z,24.31
2023-08-29T00:12:21.126Z,24.35
2023-08-29T00:14:47.941Z,23.83
2023-08-29T00:17:14.802Z,23.24
2023-08-29T00:19:41.614Z,23.61
2023-08-29T00:22:08.442Z,24.00
2023-08-29T00:24:35.266Z,23.25
2023-08-29T00:27:02.611Z,23.10
2023-08-29T00:29:29.412Z,23.67
2023-08-29T00:31:56.299Z,23.35
2023-08-29T00:34:30.487Z,22.93
2023-08-29T00:36:57.611Z,23.55
2023-08-29T00:39:25.317Z,23.11
2023-08-29T00:41:52.169Z,22.64
2023-08-29T00:44:22.821Z,22.56
2023-08-29T00:46:53.716Z,22.76
2023-08-29T00:49:27.993Z,23.69
2023-08-29T00:51:55.669Z,23.26
2023-08-29T00:54:22.838Z,23.30
2023-08-29T00:56:50.081Z,23.13
2023-08-29T00:59:16.934Z,23.31
2023-08-29T01:01:47.436Z,24.18
2023-08-29T01:04:14.596Z,23.85
2023-08-29T01:06:44.277Z,23.02
2023-08-29T01:09:11.272Z,23.20
2023-08-29T01:11:54.451Z,24.00
2023-08-29T01:14:41.921Z,24.28
2023-08-29T01:17:21.453Z,24.23
2023-08-29T01:19:54.257Z,23.59
2023-08-29T01:23:04.138Z,23.38
2023-08-29T01:25:34.878Z,22.47
2023-08-29T01:28:02.799Z,22.44
2023-08-29T01:30:30.474Z,23.48
2023-08-29T01:33:05.741Z,22.67
2023-08-29T01:35:35.855Z,22.80
2023-08-29T01:38:02.728Z,22.42
2023-08-29T01:40:30.739Z,22.57
2023-08-29T01:42:57.543Z,22.39
2023-08-29T01:45:24.353Z,23.08
2023-08-29T01:47:51.196Z,23.03
2023-08-29T01:50:20.046Z,22.39
2023-08-29T01:52:48.991Z,22.30
2023-08-29T01:55:17.100Z,22.07
2023-08-29T01:57:48.270Z,22.35
2023-08-29T02:00:16.582Z,22.07
2023-08-29T02:02:43.561Z,22.38
2023-08-29T02:05:14.628Z,22.61
2023-08-29T02:07:41.438Z,22.69
2023-08-29T02:10:09.154Z,23.15
2023-08-29T02:12:36.046Z,22.68
2023-08-29T02:15:02.924Z,23.08
2023-08-29T02:17:30.343Z,23.03
2023-08-29T02:19:57.141Z,22.47
2023-08-29T02:22:26.524Z,22.61
2023-08-29T02:24:55.869Z,21.75
2023-08-29T02:27:22.731Z,22.11
2023-08-29T02:29:49.514Z,21.72
2023-08-29T02:32:23.235Z,21.12
2023-08-29T02:34:51.339Z,21.76
2023-08-29T02:37:18.847Z,21.67
2023-08-29T02:39:46.260Z,21.54
2023-08-29T02:42:15.875Z,21.29
2023-08-29T02:44:42.819Z,21.06
2023-08-29T02:47:09.648Z,21.52
2023-08-29T02:49:36.557Z,21.62
2023-08-29T02:52:03.614Z,21.20
2023-08-29T02:54:30.774Z,21.18
2023-08-29T02:56:57.544Z,20.97
2023-08-29T02:59:24.338Z,22.46
2023-08-29T03:01:51.113Z,21.27
2023-08-29T03:04:17.966Z,21.49
2023-08-29T03:06:44.779Z,21.47
2023-08-29T03:09:12.729Z,21.20
2023-08-29T03:11:45.875Z,21.57
2023-08-29T03:14:15.055Z,20.91
2023-08-29T03:16:42.059Z,21.09
2023-08-29T03:19:08.950Z,21.06
2023-08-29T03:21:35.756Z,21.11
2023-08-29T03:24:02.600Z,22.28
2023-08-29T03:26:32.804Z,22.04
2023-08-29T03:29:00.118Z,22.07
2023-08-29T03:31:26.915Z,21.60
2023-08-29T03:33:58.163Z,22.51
2023-08-29T03:36:25.018Z,21.57
2023-08-29T03:38:51.826Z,21.61
2023-08-29T03:41:18.651Z,21.92
2023-08-29T03:43:45.544Z,21.36
2023-08-29T03:46:12.485Z,20.96
2023-08-29T03:48:39.615Z,21.37
2023-08-29T03:51:14.231Z,21.79
2023-08-29T03:53:41.748Z,22.39
2023-08-29T03:56:10.277Z,22.93
2023-08-29T03:58:37.099Z,22.05
2023-08-29T04:01:05.407Z,21.85
2023-08-29T04:03:32.959Z,22.54
2023-08-29T04:06:01.023Z,22.08
2023-08-29T04:08:31.465Z,21.33
2023-08-29T04:10:59.007Z,21.25
2023-08-29T04:13:25.865Z,21.89
2023-08-29T04:15:52.707Z,22.28
2023-08-29T04:18:19.567Z,21.14
2023-08-29T04:20:46.375Z,21.69
2023-08-29T04:23:16.524Z,21.66
2023-08-29T04:25:43.376Z,21.80
2023-08-29T04:28:10.275Z,21.98
2023-08-29T04:30:37.171Z,22.77
2023-08-29T04:33:04.478Z,22.31
2023-08-29T04:35:32.384Z,22.01
2023-08-29T04:37:59.814Z,22.07
2023-08-29T04:40:26.604Z,21.19
2023-08-29T04:42:53.437Z,20.63
2023-08-29T04:45:20.633Z,20.99
2023-08-29T04:47:51.414Z,21.86
2023-08-29T04:50:18.366Z,22.08
2023-08-29T04:52:45.808Z,21.55
2023-08-29T04:55:18.609Z,21.63
2023-08-29T04:57:45.396Z,21.65
2023-08-29T05:00:12.555Z,22.57
2023-08-29T05:02:42.261Z,22.43
2023-08-29T05:05:12.143Z,21.92
2023-08-29T05:07:39.002Z,22.17
2023-08-29T05:10:06.263Z,22.68
2023-08-29T05:12:32.998Z,22.77
2023-08-29T05:15:03.943Z,22.82
2023-08-29T05:17:41.377Z,21.87
2023-08-29T05:20:08.597Z,21.98
2023-08-29T05:22:35.635Z,21.83
2023-08-29T05:25:02.445Z,21.42
2023-08-29T05:27:32.193Z,21.80
2023-08-29T05:29:59.263Z,22.97
2023-08-29T05:32:30.841Z,22.05
2023-08-29T05:34:57.650Z,22.36
2023-08-29T05:37:24.452Z,22.36
2023-08-29T05:39:51.436Z,21.89
2023-08-29T05:42:18.230Z,21.64
2023-08-29T05:44:49.932Z,21.82
2023-08-29T05:47:23.984Z,22.30
2023-08-29T05:49:53.436Z,22.78
2023-08-29T05:52:20.186Z,22.85
2023-08-29T05:54:47.326Z,22.10
2023-08-29T05:57:20.548Z,22.55
2023-08-29T05:59:53.614Z,22.82
2023-08-29T06:02:26.042Z,22.98
2023-08-29T06:04:55.424Z,22.27
2023-08-29T06:07:22.488Z,22.30
2023-08-29T06:12:15.923Z,22.34
2023-08-29T06:14:42.725Z,22.42
2023-08-29T06:17:09.544Z,22.62
2023-08-29T06:19:46.971Z,21.78
2023-08-29T06:22:15.341Z,22.24
2023-08-29T06:24:45.484Z,22.27
2023-08-29T06:27:12.252Z,21.57
2023-08-29T06:29:39.084Z,22.54
2023-08-29T06:32:11.553Z,23.38
2023-08-29T06:34:42.083Z,23.15
2023-08-29T06:37:08.905Z,22.64
2023-08-29T06:39:35.672Z,22.84
2023-08-29T06:42:02.454Z,22.77
2023-08-29T06:44:30.732Z,23.06
2023-08-29T06:46:57.549Z,22.08
2023-08-29T06:49:26.637Z,22.66
2023-08-29T06:51:56.370Z,22.10
2023-08-29T06:54:26.035Z,22.52
2023-08-29T06:56:52.818Z,22.84
2023-08-29T06:59:19.557Z,22.54
2023-08-29T07:01:46.854Z,22.50
2023-08-29T07:04:14.911Z,22.77
2023-08-29T07:06:41.724Z,22.34
2023-08-29T07:09:08.553Z,22.35
2023-08-29T07:11:43.669Z,23.44
2023-08-29T07:16:37.417Z,22.77
2023-08-29T07:21:42.031Z,22.43
2023-08-29T07:24:10.184Z,22.44
2023-08-29T07:26:37.004Z,22.99
2023-08-29T07:29:03.891Z,23.16
2023-08-29T07:31:30.637Z,22.32
2023-08-29T07:33:57.478Z,22.36
2023-08-29T07:36:24.222Z,21.99
2023-08-29T07:38:53.514Z,22.21
2023-08-29T07:41:20.299Z,22.15
2023-08-29T07:43:47.068Z,22.35
2023-08-29T07:46:13.884Z,22.35
2023-08-29T07:48:40.675Z,22.73
2023-08-29T07:51:07.438Z,22.96
2023-08-29T07:53:35.762Z,22.89
2023-08-29T07:56:02.552Z,23.06
2023-08-29T07:58:29.277Z,23.07
2023-08-29T08:00:56.510Z,22.58
2023-08-29T08:03:26.455Z,22.44
2023-08-29T08:05:57.067Z,22.32
2023-08-29T08:08:23.906Z,22.56
2023-08-29T08:10:50.762Z,22.83
2023-08-29T08:13:18.600Z,23.66
2023-08-29T08:15:47.055Z,22.65
2023-08-29T08:18:20.449Z,22.64
2023-08-29T08:20:50.069Z,23.02
2023-08-29T08:23:16.868Z,22.64
2023-08-29T08:25:43.719Z,21.43
2023-08-29T08:28:10.468Z,20.78
2023-08-29T08:30:37.933Z,21.69
2023-08-29T08:33:04.966Z,21.59
2023-08-29T08:35:35.773Z,22.21
2023-08-29T08:38:05.636Z,22.70
2023-08-29T08:40:34.177Z,22.35
2023-08-29T08:43:10.371Z,22.42
2023-08-29T08:45:40.961Z,22.29
2023-08-29T08:48:14.342Z,22.26
2023-08-29T08:50:45.658Z,22.32
2023-08-29T08:53:19.702Z,21.52
2023-08-29T08:55:46.917Z,21.71
2023-08-29T08:58:14.420Z,21.67
2023-08-29T09:00:41.379Z,21.62
2023-08-29T09:03:08.516Z,21.98
2023-08-29T09:05:39.867Z,21.82
2023-08-29T09:08:08.167Z,21.75
2023-08-29T09:10:39.288Z,21.99
2023-08-29T09:13:06.032Z,21.48
2023-08-29T09:15:33.416Z,21.35
2023-08-29T09:18:00.488Z,22.12
2023-08-29T09:20:34.292Z,22.03
2023-08-29T09:23:01.117Z,21.65
2023-08-29T09:25:33.544Z,22.64
2023-08-29T09:28:01.414Z,21.86
2023-08-29T09:30:28.332Z,21.98
2023-08-29T09:32:55.369Z,22.16
2023-08-29T09:35:22.527Z,22.19
2023-08-29T09:37:55.661Z,22.39
2023-08-29T09:40:39.100Z,22.28
2023-08-29T09:43:09.004Z,22.58
2023-08-29T09:45:35.830Z,22.82
2023-08-29T09:48:03.215Z,23.22
2023-08-29T09:50:31.268Z,22.98
2023-08-29T09:52:58.620Z,23.56
2023-08-29T09:55:27.619Z,23.39
2023-08-29T09:57:58.836Z,22.97
2023-08-29T10:00:33.440Z,22.80
2023-08-29T10:03:03.057Z,22.26
2023-08-29T10:05:37.196Z,23.40
2023-08-29T10:08:34.713Z,23.38
2023-08-29T10:11:03.177Z,23.24
2023-08-29T10:13:33.372Z,23.21
2023-08-29T10:16:00.273Z,22.95
2023-08-29T10:18:32.929Z,23.26
2023-08-29T10:21:03.363Z,22.49
2023-08-29T10:23:32.035Z,22.77
2023-08-29T10:25:59.970Z,22.84
2023-08-29T10:28:31.663Z,22.43
2023-08-29T10:31:01.988Z,22.26
2023-08-29T10:33:28.963Z,23.00
2023-08-29T10:35:56.680Z,21.99
2023-08-29T10:38:24.169Z,22.07
2023-08-29T10:41:01.929Z,22.36
2023-08-29T10:43:30.339Z,22.20
2023-08-29T10:45:58.396Z,22.22
2023-08-29T10:48:31.042Z,22.40
2023-08-29T10:51:11.217Z,22.38
2023-08-29T10:53:42.586Z,22.62
2023-08-29T10:56:09.427Z,22.76
2023-08-29T10:58:44.075Z,22.56
2023-08-29T11:01:26.110Z,22.41
2023-08-29T11:03:55.952Z,22.67
2023-08-29T11:06:28.610Z,22.51
2023-08-29T11:09:17.903Z,22.48
2023-08-29T11:11:45.799Z,22.58
2023-08-29T11:14:16.397Z,23.03
2023-08-29T11:17:13.168Z,22.70
2023-08-29T11:19:40.266Z,22.78
2023-08-29T11:22:09.198Z,23.25
2023-08-29T11:24:37.477Z,22.69
2023-08-29T11:27:07.169Z,22.39
2023-08-29T11:29:39.668Z,23.15
2023-08-29T11:32:06.585Z,22.46
2023-08-29T11:34:36.445Z,22.82
2023-08-29T11:37:09.543Z,22.74
2023-08-29T11:39:36.281Z,22.24
2023-08-29T11:42:48.269Z,22.70
2023-08-29T11:45:31.428Z,23.43
2023-08-29T11:47:43.856Z,23.25
2023-08-29T11:50:14.111Z,23.74
2023-08-29T11:52:40.968Z,23.79
2023-08-29T11:55:11.969Z,23.00
2023-08-29T11:57:46.498Z,22.83
2023-08-29T12:00:13.833Z,22.98
2023-08-29T12:02:43.650Z,23.20
2023-08-29T12:05:10.538Z,23.31
2023-08-29T12:07:37.434Z,23.19
2023-08-29T12:10:13.604Z,23.66
2023-08-29T12:12:41.635Z,23.40
2023-08-29T12:15:09.814Z,23.99
2023-08-29T12:17:44.411Z,24.08
2023-08-29T12:20:18.122Z,23.68
2023-08-29T12:22:49.616Z,23.64
2023-08-29T12:25:20.154Z,24.18
2023-08-29T12:27:50.982Z,23.69
2023-08-29T12:30:20.688Z,24.38
2023-08-29T12:32:48.763Z,23.80
2023-08-29T12:35:18.302Z,23.89
2023-08-29T12:37:45.551Z,23.61
2023-08-29T12:40:15.321Z,23.03
2023-08-29T12:42:43.016Z,23.78
2023-08-29T12:45:10.073Z,23.83
2023-08-29T12:47:40.096Z,24.32
2023-08-29T12:50:07.633Z,24.30
2023-08-29T12:52:34.674Z,23.79
2023-08-29T12:55:01.822Z,23.81
2023-08-29T12:57:32.837Z,23.76
2023-08-29T13:00:00.346Z,23.93
2023-08-29T13:02:31.917Z,24.04
2023-08-29T13:05:01.505Z,24.35
2023-08-29T13:07:28.935Z,24.05
2023-08-29T13:09:56.389Z,23.43
2023-08-29T13:12:23.189Z,24.01
2023-08-29T13:14:49.993Z,24.53
2023-08-29T13:17:16.773Z,24.59
2023-08-29T13:19:43.646Z,24.70
2023-08-29T13:22:13.284Z,24.51
2023-08-29T13:24:40.121Z,24.67
2023-08-29T13:27:08.317Z,23.95
2023-08-29T13:29:37.884Z,24.36
2023-08-29T13:32:05.426Z,23.98
2023-08-29T13:34:32.232Z,24.12
2023-08-29T13:37:07.729Z,23.63
2023-08-29T13:39:34.495Z,23.12
2023-08-29T13:42:01.304Z,23.39
2023-08-29T13:44:28.485Z,22.93
2023-08-29T13:46:57.838Z,22.70
2023-08-29T13:49:27.772Z,23.06
2023-08-29T13:51:57.367Z,23.02
2023-08-29T13:54:25.408Z,23.04
2023-08-29T13:56:52.192Z,23.18
2023-08-29T13:59:21.595Z,22.87
2023-08-29T14:01:48.803Z,23.98
2023-08-29T14:04:15.705Z,23.26
2023-08-29T14:06:44.791Z,23.28
2023-08-29T14:09:11.592Z,23.59
2023-08-29T14:11:38.757Z,23.84
2023-08-29T14:14:05.654Z,23.76
2023-08-29T14:16:33.391Z,23.13
2023-08-29T14:19:00.293Z,22.73
2023-08-29T14:21:27.179Z,23.14
2023-08-29T14:23:55.866Z,22.59
2023-08-29T14:26:22.728Z,23.18
2023-08-29T14:28:49.536Z,23.24
2023-08-29T14:31:22.506Z,23.83
2023-08-29T14:33:49.357Z,23.76
2023-08-29T14:36:16.110Z,23.42
2023-08-29T14:38:43.081Z,23.58
2023-08-29T14:41:10.864Z,23.98
2023-08-29T14:43:44.056Z,23.92
2023-08-29T14:46:11.197Z,22.78
2023-08-29T14:48:41.382Z,23.51
2023-08-29T14:51:08.258Z,23.62
2023-08-29T14:53:35.820Z,23.23
2023-08-29T14:56:05.896Z,23.05
2023-08-29T14:58:36.766Z,23.21
2023-08-29T15:01:04.370Z,22.46
2023-08-29T15:03:37.524Z,23.14
2023-08-29T15:06:04.731Z,22.28
2023-08-29T15:08:31.745Z,22.62
2023-08-29T15:11:01.190Z,22.79
2023-08-29T15:13:27.942Z,23.14
2023-08-29T15:15:57.537Z,22.65
2023-08-29T15:18:25.401Z,22.91
2023-08-29T15:20:54.730Z,22.04
2023-08-29T15:23:21.476Z,22.25
2023-08-29T15:26:02.944Z,22.68
2023-08-29T15:28:31.866Z,22.16
2023-08-29T15:31:01.643Z,22.39
2023-08-29T15:33:35.496Z,22.59
2023-08-29T15:36:04.820Z,22.57
2023-08-29T15:38:31.646Z,22.59
2023-08-29T15:40:58.429Z,23.19
2023-08-29T15:43:26.171Z,23.29
2023-08-29T15:45:53.268Z,23.56
2023-08-29T15:48:20.152Z,23.57
2023-08-29T15:50:47.611Z,22.62
2023-08-29T15:53:15.289Z,23.22
2023-08-29T15:55:43.022Z,22.63
2023-08-29T15:58:10.070Z,22.96
2023-08-29T16:00:38.365Z,22.58
2023-08-29T16:03:07.577Z,22.93
2023-08-29T16:05:34.959Z,22.95
2023-08-29T16:08:02.642Z,23.19
2023-08-29T16:10:34.029Z,22.49
2023-08-29T16:13:02.279Z,22.00
2023-08-29T16:15:31.976Z,21.85
2023-08-29T16:17:58.929Z,22.15
2023-08-29T16:20:25.807Z,22.19
2023-08-29T16:22:59.408Z,22.06
2023-08-29T16:25:28.357Z,22.31
2023-08-29T16:27:59.480Z,21.45
2023-08-29T16:30:27.659Z,21.78
2023-08-29T16:32:54.854Z,21.37
2023-08-29T16:35:26.946Z,21.02
2023-08-29T16:38:01.337Z,21.41
2023-08-29T16:40:30.726Z,21.59
2023-08-29T16:43:00.532Z,21.71
2023-08-29T16:45:27.329Z,21.64
2023-08-29T16:47:55.772Z,21.39
2023-08-29T16:50:23.497Z,21.17
2023-08-29T16:52:50.323Z,21.32
2023-08-29T16:55:17.201Z,21.49
2023-08-29T16:57:43.981Z,21.47
2023-08-29T17:00:19.116Z,21.48
2023-08-29T17:02:46.478Z,21.36
2023-08-29T17:05:13.450Z,21.52
2023-08-29T17:07:40.286Z,21.33
2023-08-29T17:10:07.992Z,21.58
2023-08-29T17:12:34.806Z,21.71
2023-08-29T17:15:02.283Z,21.46
2023-08-29T17:17:29.122Z,21.78
2023-08-29T17:19:56.008Z,21.20
2023-08-29T17:22:25.810Z,21.83
2023-08-29T17:24:52.820Z,21.36
2023-08-29T17:27:22.600Z,21.28
2023-08-29T17:29:51.884Z,21.00
2023-08-29T17:32:22.355Z,20.94
2023-08-29T17:34:49.241Z,20.94
2023-08-29T17:37:16.297Z,20.76
2023-08-29T17:39:43.349Z,21.27
2023-08-29T17:42:10.129Z,22.10
2023-08-29T17:44:36.934Z,22.16
2023-08-29T17:47:03.740Z,22.10
2023-08-29T17:49:30.539Z,22.07
2023-08-29T17:51:57.267Z,22.49
2023-08-29T17:54:24.133Z,21.57
2023-08-29T17:56:51.006Z,21.61
2023-08-29T17:59:17.808Z,22.28
2023-08-29T18:01:44.675Z,22.23
2023-08-29T18:04:11.470Z,22.01
2023-08-29T18:06:38.196Z,21.69
2023-08-29T18:09:04.987Z,22.25
2023-08-29T18:11:31.771Z,21.62
2023-08-29T18:13:58.549Z,21.76
2023-08-29T18:16:25.379Z,21.72
2023-08-29T18:18:52.633Z,21.78
2023-08-29T18:21:21.098Z,22.34
2023-08-29T18:23:50.384Z,22.67
2023-08-29T18:26:21.591Z,22.37
2023-08-29T18:28:48.414Z,22.31
2023-08-29T18:31:15.239Z,21.93
2023-08-29T18:33:51.180Z,22.30
2023-08-29T18:36:22.734Z,21.97
2023-08-29T18:38:49.543Z,22.35
2023-08-29T18:41:19.525Z,22.54
2023-08-29T18:43:46.322Z,22.25
2023-08-29T18:46:14.087Z,22.14
2023-08-29T18:48:42.869Z,21.82
2023-08-29T18:51:09.619Z,21.69
2023-08-29T18:53:36.412Z,21.29
2023-08-29T18:56:03.252Z,21.31
2023-08-29T18:58:30.128Z,21.66
2023-08-29T19:01:01.987Z,21.59
2023-08-29T19:03:30.355Z,21.80
2023-08-29T19:05:57.174Z,21.68
2023-08-29T19:08:24.022Z,21.67
2023-08-29T19:10:51.644Z,21.81
2023-08-29T19:13:20.109Z,21.88
2023-08-29T19:15:48.144Z,21.71
2023-08-29T19:18:15.104Z,22.57
2023-08-29T19:20:42.025Z,22.28
2023-08-29T19:23:15.122Z,22.03
2023-08-29T19:25:42.844Z,22.17
2023-08-29T19:28:09.991Z,22.25
2023-08-29T19:30:36.932Z,21.82
2023-08-29T19:33:04.018Z,21.20
2023-08-29T19:35:33.294Z,21.23
2023-08-29T19:38:00.182Z,21.01
2023-08-29T19:40:30.808Z,21.52
2023-08-29T19:42:57.775Z,21.13
2023-08-29T19:45:24.764Z,21.24
2023-08-29T19:47:51.752Z,21.58
2023-08-29T19:50:19.200Z,21.55
2023-08-29T19:52:46.630Z,21.18
2023-08-29T19:55:13.481Z,21.30
2023-08-29T19:57:40.327Z,21.36
2023-08-29T20:00:15.802Z,21.64
2023-08-29T20:02:44.127Z,21.85
2023-08-29T20:05:10.983Z,21.56
2023-08-29T20:07:37.836Z,21.43
2023-08-29T20:10:04.695Z,21.44
2023-08-29T20:12:35.112Z,21.25
2023-08-29T20:15:06.105Z,21.41
2023-08-29T20:17:32.933Z,21.82
2023-08-29T20:19:59.828Z,21.51
2023-08-29T20:22:26.749Z,21.50
2023-08-29T20:24:53.568Z,21.56
2023-08-29T20:27:20.417Z,21.38
2023-08-29T20:29:50.484Z,21.26
2023-08-29T20:32:20.655Z,21.26
2023-08-29T20:34:47.955Z,21.32
2023-08-29T20:37:14.821Z,21.42
2023-08-29T20:39:41.669Z,21.62
2023-08-29T20:42:12.818Z,21.75
2023-08-29T20:44:39.584Z,21.93
2023-08-29T20:47:06.368Z,21.94
2023-08-29T20:49:33.148Z,22.33
2023-08-29T20:52:02.227Z,21.93
2023-08-29T20:54:29.928Z,22.04
2023-08-29T20:56:56.714Z,22.08
2023-08-29T20:59:23.553Z,22.42
2023-08-29T21:01:50.419Z,22.66
2023-08-29T21:04:23.461Z,22.65
2023-08-29T21:06:50.216Z,22.63
2023-08-29T21:09:17.024Z,22.67
2023-08-29T21:11:43.956Z,22.50
2023-08-29T21:14:10.717Z,22.39
2023-08-29T21:16:37.527Z,22.30
2023-08-29T21:19:04.448Z,22.44
2023-08-29T21:21:31.229Z,22.66
2023-08-29T21:23:57.973Z,22.75
2023-08-29T21:26:24.947Z,22.58
2023-08-29T21:28:56.857Z,22.64
2023-08-29T21:31:24.280Z,22.88
2023-08-29T21:33:51.116Z,22.71
2023-08-29T21:36:17.888Z,22.63
2023-08-29T21:38:44.854Z,22.47
2023-08-29T21:41:11.744Z,21.81
2023-08-29T21:43:38.565Z,21.90
2023-08-29T21:46:07.731Z,21.76
2023-08-29T21:48:36.246Z,22.71
2023-08-29T21:51:03.114Z,22.10
2023-08-29T21:53:33.724Z,22.02
2023-08-29T21:56:08.547Z,22.92
2023-08-29T21:58:35.328Z,22.38
2023-08-29T22:01:02.204Z,22.16
2023-08-29T22:03:29.134Z,21.91
2023-08-29T22:05:56.069Z,21.43
2023-08-29T22:08:27.579Z,22.07
2023-08-29T22:10:54.399Z,22.27
2023-08-29T22:13:21.356Z,22.39
2023-08-29T22:15:48.192Z,21.85
2023-08-29T22:18:15.007Z,22.35
2023-08-29T22:20:44.196Z,22.45
2023-08-29T22:23:10.997Z,22.46
2023-08-29T22:25:37.814Z,22.12
2023-08-29T22:28:11.671Z,22.45
2023-08-29T22:30:39.316Z,21.97
2023-08-29T22:33:06.584Z,22.09
2023-08-29T22:35:36.514Z,22.26
2023-08-29T22:38:04.599Z,22.39
2023-08-29T22:40:33.008Z,22.23
2023-08-29T22:42:59.856Z,22.33
2023-08-29T22:45:26.617Z,21.89
2023-08-29T22:47:53.431Z,22.11
2023-08-29T22:50:20.217Z,22.09
2023-08-29T22:52:46.979Z,21.42
2023-08-29T22:55:13.818Z,21.50
2023-08-29T22:57:40.585Z,21.30
2023-08-29T23:00:13.140Z,21.58
2023-08-29T23:02:40.397Z,21.69
2023-08-29T23:05:10.174Z,21.72
2023-08-29T23:07:36.982Z,21.64
2023-08-29T23:10:07.246Z,21.45
2023-08-29T23:12:34.130Z,21.61
2023-08-29T23:15:00.923Z,21.20
2023-08-29T23:17:27.765Z,21.63
2023-08-29T23:19:54.614Z,21.49
2023-08-29T23:22:21.400Z,21.41
2023-08-29T23:24:48.178Z,21.86
2023-08-29T23:27:15.006Z,21.72
2023-08-29T23:29:41.876Z,20.93
2023-08-29T23:32:10.510Z,20.60
2023-08-29T23:34:37.242Z,20.73
2023-08-29T23:37:05.280Z,20.76
2023-08-29T23:39:32.216Z,20.78
2023-08-29T23:42:05.459Z,21.16
2023-08-29T23:44:33.096Z,21.79
2023-08-29T23:46:59.910Z,21.66
2023-08-29T23:49:29.501Z,21.87
2023-08-29T23:52:01.620Z,21.72
2023-08-29T23:54:31.500Z,20.87
2023-08-29T23:57:00.613Z,21.32
2023-08-29T23:59:30.184Z,20.50
